createdAt,value
2022-12-01T00:01:15.438Z,33.67
2022-12-01T00:03:42.215Z,34.38
2022-12-01T00:06:15.919Z,28.20
2022-12-01T00:09:06.770Z,31.45
2022-12-01T00:11:36.022Z,25.85
2022-12-01T00:14:03.856Z,26.30
2022-12-01T00:16:30.801Z,26.92
2022-12-01T00:18:57.489Z,26.00
2022-12-01T00:21:25.767Z,24.38
2022-12-01T00:23:55.626Z,27.33
2022-12-01T00:26:23.855Z,27.73
2022-12-01T00:28:56.037Z,21.98
2022-12-01T00:31:23.325Z,25.45
2022-12-01T00:33:50.458Z,27.02
2022-12-01T00:36:17.186Z,25.25
2022-12-01T00:38:43.880Z,25.58
2022-12-01T00:41:10.614Z,24.05
2022-12-01T00:43:37.542Z,25.45
2022-12-01T00:46:04.386Z,23.42
2022-12-01T00:48:31.185Z,26.00
2022-12-01T00:50:57.867Z,19.83
2022-12-01T00:53:24.706Z,21.70
2022-12-01T00:55:54.041Z,22.60
2022-12-01T00:58:21.622Z,26.95
2022-12-01T01:00:48.511Z,21.90
2022-12-01T01:03:15.670Z,23.42
2022-12-01T01:05:43.827Z,22.77
2022-12-01T01:08:12.700Z,21.00
2022-12-01T01:10:44.718Z,24.67
2022-12-01T01:13:12.962Z,19.98
2022-12-01T01:15:39.863Z,18.98
2022-12-01T01:18:07.185Z,20.73
2022-12-01T01:20:33.844Z,18.45
2022-12-01T01:23:00.618Z,19.50
2022-12-01T01:25:27.539Z,14.57
2022-12-01T01:27:54.245Z,19.02
2022-12-01T01:30:21.013Z,16.25
2022-12-01T01:32:47.896Z,20.58
2022-12-01T01:35:14.493Z,18.33
2022-12-01T01:37:41.166Z,16.88
2022-12-01T01:40:08.437Z,18.75
2022-12-01T01:42:35.188Z,19.48
2022-12-01T01:45:02.074Z,19.83
2022-12-01T01:47:40.673Z,16.83
2022-12-01T01:50:11.545Z,18.33
2022-12-01T01:52:53.705Z,17.67
2022-12-01T01:55:20.561Z,18.88
2022-12-01T01:57:47.472Z,21.08
2022-12-01T02:00:18.239Z,17.27
2022-12-01T02:02:47.298Z,18.58
2022-12-01T02:05:35.757Z,19.27
2022-12-01T02:08:04.388Z,18.27
2022-12-01T02:10:40.362Z,20.38
2022-12-01T02:13:06.975Z,19.65
2022-12-01T02:15:59.925Z,21.35
2022-12-01T02:18:49.823Z,20.20
2022-12-01T02:21:31.582Z,19.58
2022-12-01T02:24:00.891Z,19.83
2022-12-01T02:26:53.578Z,19.23
2022-12-01T02:29:38.371Z,17.98
2022-12-01T02:32:34.629Z,19.55
2022-12-01T02:35:11.139Z,16.67
2022-12-01T02:37:52.714Z,20.23
2022-12-01T02:40:28.410Z,20.60
2022-12-01T02:45:31.647Z,19.90
2022-12-01T02:48:02.068Z,21.52
2022-12-01T02:50:31.140Z,24.42
2022-12-01T02:52:59.401Z,19.40
2022-12-01T02:55:26.105Z,21.55
2022-12-01T02:57:52.640Z,19.33
2022-12-01T03:00:19.628Z,19.40
2022-12-01T03:03:27.785Z,17.75
2022-12-01T03:06:24.115Z,19.33
2022-12-01T03:09:17.402Z,15.30
2022-12-01T03:11:56.717Z,15.35
2022-12-01T03:14:39.956Z,15.65
2022-12-01T03:17:19.224Z,16.98
2022-12-01T03:19:54.747Z,17.48
2022-12-01T03:22:36.004Z,14.25
2022-12-01T03:25:04.322Z,19.35
2022-12-01T03:27:35.443Z,17.58
2022-12-01T03:30:04.528Z,17.23
2022-12-01T03:32:38.096Z,16.95
2022-12-01T03:35:10.843Z,17.92
2022-12-01T03:37:42.548Z,16.98
2022-12-01T03:40:14.475Z,15.25
2022-12-01T03:42:46.575Z,16.70
2022-12-01T03:45:24.369Z,12.55
2022-12-01T03:47:51.756Z,15.10
2022-12-01T03:50:19.096Z,13.25
2022-12-01T03:53:11.588Z,15.30
2022-12-01T03:55:44.274Z,12.60
2022-12-01T03:58:16.673Z,12.35
2022-12-01T04:00:46.373Z,10.40
2022-12-01T04:03:23.024Z,13.65
2022-12-01T04:05:49.732Z,12.27
2022-12-01T04:08:16.419Z,11.40
2022-12-01T04:10:43.695Z,12.05
2022-12-01T04:13:22.586Z,13.27
2022-12-01T04:15:51.440Z,12.68
2022-12-01T04:18:18.623Z,12.18
2022-12-01T04:20:46.967Z,16.35
2022-12-01T04:23:36.426Z,17.05
2022-12-01T04:26:04.909Z,18.02
2022-12-01T04:28:31.556Z,17.52
2022-12-01T04:30:58.381Z,17.00
2022-12-01T04:33:25.015Z,16.67
2022-12-01T04:35:59.479Z,16.55
2022-12-01T04:38:30.636Z,15.48
2022-12-01T04:40:58.012Z,17.40
2022-12-01T04:43:24.782Z,18.02
2022-12-01T04:45:51.540Z,16.73
2022-12-01T04:48:18.094Z,16.67
2022-12-01T04:50:44.708Z,15.50
2022-12-01T04:53:11.285Z,12.98
2022-12-01T04:55:39.255Z,14.40
2022-12-01T04:58:06.393Z,12.98
2022-12-01T05:00:33.861Z,12.20
2022-12-01T05:03:00.568Z,12.15
2022-12-01T05:05:27.580Z,15.00
2022-12-01T05:07:54.241Z,10.95
2022-12-01T05:10:21.566Z,12.13
2022-12-01T05:12:48.353Z,11.20
2022-12-01T05:15:15.499Z,12.38
2022-12-01T05:17:42.082Z,10.73
2022-12-01T05:20:33.710Z,12.80
2022-12-01T05:23:09.719Z,13.15
2022-12-01T05:25:38.917Z,10.00
2022-12-01T05:28:06.563Z,12.45
2022-12-01T05:30:33.432Z,17.20
2022-12-01T05:33:00.259Z,11.43
2022-12-01T05:35:27.084Z,12.05
2022-12-01T05:37:53.746Z,11.10
2022-12-01T05:40:20.487Z,12.48
2022-12-01T05:42:47.083Z,13.00
2022-12-01T05:45:13.767Z,12.38
2022-12-01T05:47:40.421Z,10.88
2022-12-01T05:50:08.097Z,14.30
2022-12-01T05:52:35.395Z,11.93
2022-12-01T05:55:04.143Z,12.77
2022-12-01T05:57:32.073Z,10.70
2022-12-01T05:59:59.425Z,9.25
2022-12-01T06:02:26.914Z,11.82
2022-12-01T06:04:53.960Z,10.45
2022-12-01T06:07:22.251Z,10.90
2022-12-01T06:09:49.896Z,11.48
2022-12-01T06:12:16.774Z,12.30
2022-12-01T06:14:43.425Z,12.93
2022-12-01T06:17:10.216Z,10.20
2022-12-01T06:19:36.907Z,8.73
2022-12-01T06:22:03.962Z,10.25
2022-12-01T06:24:30.691Z,10.35
2022-12-01T06:26:57.297Z,9.65
2022-12-01T06:29:23.964Z,11.15
2022-12-01T06:31:50.622Z,9.85
2022-12-01T06:34:17.300Z,10.38
2022-12-01T06:36:43.875Z,8.73
2022-12-01T06:39:10.753Z,8.82
2022-12-01T06:41:38.118Z,9.23
2022-12-01T06:44:05.033Z,13.68
2022-12-01T06:46:31.796Z,13.55
2022-12-01T06:48:58.633Z,15.73
2022-12-01T06:51:25.267Z,13.13
2022-12-01T06:53:55.437Z,11.57
2022-12-01T06:56:23.370Z,12.40
2022-12-01T06:58:50.762Z,10.05
2022-12-01T07:01:18.825Z,12.02
2022-12-01T07:03:51.420Z,14.88
2022-12-01T07:06:18.495Z,14.07
2022-12-01T07:08:45.114Z,12.63
2022-12-01T07:11:14.076Z,9.90
2022-12-01T07:13:42.277Z,13.50
2022-12-01T07:16:09.713Z,16.85
2022-12-01T07:18:37.507Z,15.35
2022-12-01T07:21:10.328Z,15.27
2022-12-01T07:23:37.275Z,15.05
2022-12-01T07:26:07.067Z,14.27
2022-12-01T07:28:34.203Z,12.65
2022-12-01T07:31:07.733Z,14.85
2022-12-01T07:33:34.891Z,11.05
2022-12-01T07:36:02.051Z,14.88
2022-12-01T07:38:29.868Z,11.68
2022-12-01T07:41:06.050Z,12.85
2022-12-01T07:43:33.534Z,14.52
2022-12-01T07:46:18.752Z,11.57
2022-12-01T07:48:49.103Z,12.77
2022-12-01T07:51:19.428Z,12.75
2022-12-01T07:53:49.408Z,15.38
2022-12-01T07:56:17.387Z,11.75
2022-12-01T07:58:44.377Z,12.63
2022-12-01T08:01:20.484Z,16.50
2022-12-01T08:03:55.452Z,16.38
2022-12-01T08:06:22.967Z,14.18
2022-12-01T08:08:50.119Z,12.90
2022-12-01T08:11:20.347Z,13.48
2022-12-01T08:13:47.460Z,13.90
2022-12-01T08:16:17.030Z,15.63
2022-12-01T08:18:44.631Z,16.90
2022-12-01T08:21:13.852Z,22.90
2022-12-01T08:23:42.230Z,21.38
2022-12-01T08:26:13.050Z,22.00
2022-12-01T08:28:39.976Z,22.65
2022-12-01T08:31:12.710Z,24.95
2022-12-01T08:33:39.533Z,23.15
2022-12-01T08:36:06.451Z,21.75
2022-12-01T08:38:33.521Z,20.88
2022-12-01T08:41:05.351Z,21.35
2022-12-01T08:43:56.716Z,20.95
2022-12-01T08:46:18.840Z,18.98
2022-12-01T08:48:45.741Z,21.33
2022-12-01T08:51:15.364Z,19.13
2022-12-01T08:53:47.448Z,23.73
2022-12-01T08:56:18.363Z,19.80
2022-12-01T08:58:45.284Z,27.08
2022-12-01T09:01:15.177Z,21.23
2022-12-01T09:03:43.191Z,22.08
2022-12-01T09:06:13.421Z,23.67
2022-12-01T09:08:40.295Z,21.70
2022-12-01T09:11:13.045Z,22.23
2022-12-01T09:13:41.030Z,18.80
2022-12-01T09:16:11.508Z,18.63
2022-12-01T09:18:38.296Z,19.90
2022-12-01T09:21:12.016Z,18.73
2022-12-01T09:23:39.618Z,19.80
2022-12-01T09:26:12.124Z,21.02
2022-12-01T09:28:40.182Z,19.02
2022-12-01T09:31:09.223Z,19.70
2022-12-01T09:33:36.631Z,21.77
2022-12-01T09:36:05.136Z,23.13
2022-12-01T09:38:33.701Z,22.58
2022-12-01T09:41:22.541Z,19.92
2022-12-01T09:43:59.897Z,20.25
2022-12-01T09:46:33.448Z,24.23
2022-12-01T09:49:03.865Z,24.45
2022-12-01T09:51:34.895Z,23.85
2022-12-01T09:54:02.614Z,20.77
2022-12-01T09:56:32.387Z,23.38
2022-12-01T09:59:01.762Z,19.40
2022-12-01T10:01:37.897Z,22.02
2022-12-01T10:04:15.103Z,20.83
2022-12-01T10:07:04.119Z,24.08
2022-12-01T10:09:43.411Z,20.83
2022-12-01T10:12:22.544Z,23.65
2022-12-01T10:14:49.333Z,23.90
2022-12-01T10:17:27.683Z,19.83
2022-12-01T10:20:06.720Z,21.08
2022-12-01T10:22:36.360Z,20.33
2022-12-01T10:25:18.087Z,21.67
2022-12-01T10:27:50.837Z,21.65
2022-12-01T10:30:20.183Z,20.65
2022-12-01T10:33:00.090Z,20.90
2022-12-01T10:35:36.215Z,21.35
2022-12-01T10:38:12.314Z,21.52
2022-12-01T10:40:41.024Z,19.95
2022-12-01T10:43:10.436Z,16.25
2022-12-01T10:45:44.093Z,20.27
2022-12-01T10:48:22.368Z,16.48
2022-12-01T10:50:51.965Z,18.80
2022-12-01T10:53:33.565Z,16.75
2022-12-01T10:56:00.309Z,16.80
2022-12-01T10:58:27.043Z,17.23
2022-12-01T11:01:02.587Z,16.48
2022-12-01T11:06:01.767Z,17.95
2022-12-01T11:08:41.811Z,16.52
2022-12-01T11:11:27.930Z,17.05
2022-12-01T11:13:56.708Z,14.85
2022-12-01T11:16:36.354Z,18.88
2022-12-01T11:19:09.071Z,18.65
2022-12-01T11:21:48.455Z,13.73
2022-12-01T11:24:33.696Z,17.23
2022-12-01T11:27:01.064Z,17.92
2022-12-01T11:29:40.167Z,19.60
2022-12-01T11:32:19.033Z,17.75
2022-12-01T11:34:52.103Z,18.85
2022-12-01T11:37:21.541Z,16.75
2022-12-01T11:39:50.025Z,17.42
2022-12-01T11:42:25.644Z,15.25
2022-12-01T11:45:21.598Z,18.90
2022-12-01T11:48:17.497Z,13.23
2022-12-01T11:50:59.526Z,12.23
2022-12-01T11:53:28.392Z,12.85
2022-12-01T11:56:17.500Z,16.88
2022-12-01T11:58:46.584Z,15.00
2022-12-01T12:01:29.858Z,14.05
2022-12-01T12:04:21.416Z,10.88
2022-12-01T12:07:07.589Z,15.55
2022-12-01T12:09:45.988Z,14.25
2022-12-01T12:12:37.461Z,13.15
2022-12-01T12:15:24.631Z,11.65
2022-12-01T12:18:18.472Z,12.77
2022-12-01T12:21:06.296Z,13.30
2022-12-01T12:24:14.120Z,11.90
2022-12-01T12:27:19.008Z,13.23
2022-12-01T12:29:58.143Z,12.05
2022-12-01T12:32:46.359Z,12.27
2022-12-01T12:35:33.055Z,11.20
2022-12-01T12:38:13.009Z,10.60
2022-12-01T12:41:05.536Z,8.73
2022-12-01T12:43:40.964Z,11.07
2022-12-01T12:46:11.892Z,8.13
2022-12-01T12:49:20.887Z,9.00
2022-12-01T12:51:54.441Z,8.52
2022-12-01T12:54:27.520Z,9.73
2022-12-01T12:57:01.099Z,9.48
2022-12-01T12:59:51.815Z,7.10
2022-12-01T13:02:27.054Z,9.70
2022-12-01T13:05:09.526Z,8.02
2022-12-01T13:07:51.261Z,7.95
2022-12-01T13:10:43.226Z,6.60
2022-12-01T13:13:37.677Z,7.82
2022-12-01T13:16:11.159Z,9.48
2022-12-01T13:18:50.169Z,13.57
2022-12-01T13:21:20.411Z,12.52
2022-12-01T13:23:49.200Z,13.98
2022-12-01T13:26:19.587Z,14.43
2022-12-01T13:28:51.736Z,12.70
2022-12-01T13:31:20.584Z,12.25
2022-12-01T13:34:01.983Z,11.65
2022-12-01T13:36:46.199Z,13.00
2022-12-01T13:39:20.614Z,10.45
2022-12-01T13:41:58.902Z,13.35
2022-12-01T13:44:50.483Z,12.10
2022-12-01T13:47:17.327Z,11.32
2022-12-01T13:49:49.560Z,11.43
2022-12-01T13:52:19.237Z,11.70
2022-12-01T13:55:07.699Z,13.25
2022-12-01T13:57:36.037Z,11.18
2022-12-01T14:00:03.411Z,18.52
2022-12-01T14:02:39.009Z,18.48
2022-12-01T14:05:24.613Z,15.55
2022-12-01T14:07:52.623Z,16.40
2022-12-01T14:10:32.384Z,17.42
2022-12-01T14:13:03.949Z,18.80
2022-12-01T14:15:42.664Z,14.50
2022-12-01T14:18:21.774Z,10.75
2022-12-01T14:20:49.509Z,11.57
2022-12-01T14:23:36.483Z,14.73
2022-12-01T14:26:14.526Z,13.07
2022-12-01T14:29:02.558Z,9.38
2022-12-01T14:31:35.348Z,10.20
2022-12-01T14:34:11.217Z,14.25
2022-12-01T14:37:02.016Z,12.45
2022-12-01T14:39:35.582Z,9.65
2022-12-01T14:42:11.556Z,9.65
2022-12-01T14:44:43.797Z,10.63
2022-12-01T14:47:10.651Z,9.57
2022-12-01T14:50:13.214Z,10.93
2022-12-01T14:53:03.926Z,13.45
2022-12-01T14:55:40.947Z,9.80
2022-12-01T14:58:26.765Z,10.27
2022-12-01T15:01:13.807Z,10.90
2022-12-01T15:03:45.129Z,12.98
2022-12-01T15:06:17.831Z,10.45
2022-12-01T15:08:58.392Z,12.77
2022-12-01T15:11:32.064Z,12.57
2022-12-01T15:13:59.093Z,13.68
2022-12-01T15:16:30.233Z,9.93
2022-12-01T15:18:56.907Z,12.93
2022-12-01T15:21:31.491Z,8.52
2022-12-01T15:24:25.948Z,8.50
2022-12-01T15:27:03.328Z,10.38
2022-12-01T15:29:42.908Z,9.60
2022-12-01T15:32:15.577Z,8.20
2022-12-01T15:34:46.400Z,6.97
2022-12-01T15:37:24.699Z,7.00
2022-12-01T15:40:43.439Z,6.50
2022-12-01T15:43:03.425Z,11.68
2022-12-01T15:45:30.274Z,8.68
2022-12-01T15:47:56.903Z,9.95
2022-12-01T15:50:26.177Z,8.57
2022-12-01T15:52:52.934Z,6.53
2022-12-01T15:55:29.968Z,9.70
2022-12-01T15:57:58.700Z,10.73
2022-12-01T16:00:26.520Z,9.77
2022-12-01T16:02:58.360Z,7.78
2022-12-01T16:05:33.183Z,9.02
2022-12-01T16:08:21.415Z,9.10
2022-12-01T16:11:10.761Z,12.00
2022-12-01T16:13:55.367Z,9.35
2022-12-01T16:16:28.652Z,12.05
2022-12-01T16:19:11.575Z,14.73
2022-12-01T16:21:47.365Z,12.57
2022-12-01T16:24:24.820Z,15.50
2022-12-01T16:26:54.592Z,16.13
2022-12-01T16:29:25.887Z,15.23
2022-12-01T16:32:21.613Z,12.38
2022-12-01T16:34:47.712Z,13.73
2022-12-01T16:37:15.385Z,16.27
2022-12-01T16:39:42.331Z,16.15
2022-12-01T16:42:14.449Z,11.68
2022-12-01T16:44:42.723Z,10.18
2022-12-01T16:47:14.666Z,13.27
2022-12-01T16:49:41.579Z,9.90
2022-12-01T16:52:42.585Z,11.90
2022-12-01T16:54:55.019Z,13.18
2022-12-01T16:57:21.633Z,11.15
2022-12-01T16:59:48.279Z,12.82
2022-12-01T17:02:15.097Z,10.77
2022-12-01T17:04:41.973Z,12.02
2022-12-01T17:07:08.582Z,10.43
2022-12-01T17:09:35.688Z,12.18
2022-12-01T17:12:02.251Z,12.45
2022-12-01T17:14:29.285Z,13.52
2022-12-01T17:16:57.441Z,13.05
2022-12-01T17:19:24.240Z,13.75
2022-12-01T17:21:50.833Z,14.18
2022-12-01T17:24:19.184Z,13.32
2022-12-01T17:26:46.245Z,17.98
2022-12-01T17:29:12.905Z,13.02
2022-12-01T17:31:39.613Z,9.32
2022-12-01T17:34:07.736Z,12.80
2022-12-01T17:36:35.453Z,14.88
2022-12-01T17:39:02.809Z,18.90
2022-12-01T17:41:36.471Z,13.50
2022-12-01T17:44:05.500Z,14.30
2022-12-01T17:46:33.392Z,14.20
2022-12-01T17:49:01.764Z,16.65
2022-12-01T17:51:28.512Z,23.92
2022-12-01T17:53:55.431Z,27.10
2022-12-01T17:56:22.132Z,13.65
2022-12-01T17:58:50.429Z,12.38
2022-12-01T18:01:20.780Z,11.98
2022-12-01T18:03:50.740Z,12.68
2022-12-01T18:06:19.812Z,12.88
2022-12-01T18:08:47.133Z,17.45
2022-12-01T18:11:16.139Z,20.30
2022-12-01T18:13:47.876Z,19.30
2022-12-01T18:16:20.322Z,20.13
2022-12-01T18:18:47.520Z,14.20
2022-12-01T18:21:16.744Z,16.42
2022-12-01T18:23:52.745Z,13.65
2022-12-01T18:26:21.904Z,14.10
2022-12-01T18:29:02.955Z,16.30
2022-12-01T18:31:30.439Z,16.08
2022-12-01T18:33:59.154Z,17.08
2022-12-01T18:36:27.053Z,13.00
2022-12-01T18:38:54.670Z,15.80
2022-12-01T18:41:21.406Z,15.00
2022-12-01T18:43:48.347Z,14.18
2022-12-01T18:46:16.893Z,16.08
2022-12-01T18:48:45.844Z,15.45
2022-12-01T18:51:13.343Z,14.23
2022-12-01T18:53:40.291Z,14.43
2022-12-01T18:56:11.693Z,14.63
2022-12-01T18:58:39.499Z,12.73
2022-12-01T19:01:32.530Z,16.25
2022-12-01T19:04:00.403Z,12.25
2022-12-01T19:06:28.736Z,12.85
2022-12-01T19:09:00.260Z,13.63
2022-12-01T19:11:28.252Z,13.90
2022-12-01T19:13:58.289Z,14.65
2022-12-01T19:16:25.797Z,13.35
2022-12-01T19:18:53.315Z,13.73
2022-12-01T19:21:20.404Z,16.73
2022-12-01T19:23:47.812Z,18.33
2022-12-01T19:26:18.687Z,16.08
2022-12-01T19:28:46.097Z,17.75
2022-12-01T19:31:20.127Z,13.55
2022-12-01T19:33:47.344Z,20.38
2022-12-01T19:36:21.832Z,17.00
2022-12-01T19:38:49.102Z,15.15
2022-12-01T19:41:17.192Z,20.63
2022-12-01T19:43:44.074Z,18.00
2022-12-01T19:46:17.575Z,18.88
2022-12-01T19:48:45.565Z,18.25
2022-12-01T19:51:20.812Z,13.63
2022-12-01T19:53:47.830Z,17.48
2022-12-01T19:56:14.773Z,19.02
2022-12-01T19:58:41.850Z,17.20
2022-12-01T20:01:11.589Z,22.23
2022-12-01T20:03:40.574Z,29.40
2022-12-01T20:06:13.567Z,30.33
2022-12-01T20:08:40.939Z,36.53
2022-12-01T20:11:08.781Z,27.90
2022-12-01T20:13:39.115Z,21.20
2022-12-01T20:16:18.634Z,22.50
2022-12-01T20:18:45.901Z,21.15
2022-12-01T20:21:19.016Z,23.27
2022-12-01T20:23:48.281Z,20.05
2022-12-01T20:26:17.213Z,19.02
2022-12-01T20:28:45.688Z,14.95
2022-12-01T20:31:15.919Z,13.77
2022-12-01T20:33:42.841Z,13.90
2022-12-01T20:36:09.796Z,13.50
2022-12-01T20:38:37.350Z,15.27
2022-12-01T20:41:05.024Z,18.23
2022-12-01T20:43:32.889Z,19.85
2022-12-01T20:46:00.272Z,20.40
2022-12-01T20:48:27.044Z,27.75
2022-12-01T20:50:54.415Z,17.80
2022-12-01T20:53:21.784Z,14.85
2022-12-01T20:55:49.079Z,15.65
2022-12-01T20:58:15.758Z,15.77
2022-12-01T21:00:44.327Z,14.63
2022-12-01T21:03:11.871Z,16.50
2022-12-01T21:05:40.423Z,16.42
2022-12-01T21:08:10.788Z,14.45
2022-12-01T21:10:44.753Z,12.80
2022-12-01T21:13:39.167Z,14.02
2022-12-01T21:16:27.427Z,13.25
2022-12-01T21:19:00.234Z,14.93
2022-12-01T21:21:29.294Z,11.48
2022-12-01T21:24:07.934Z,14.02
2022-12-01T21:26:39.360Z,16.55
2022-12-01T21:29:18.671Z,13.65
2022-12-01T21:31:46.784Z,15.82
2022-12-01T21:34:18.791Z,16.02
2022-12-01T21:36:48.164Z,11.35
2022-12-01T21:39:18.434Z,12.80
2022-12-01T21:41:45.291Z,15.68
2022-12-01T21:44:20.368Z,14.05
2022-12-01T21:46:50.029Z,14.38
2022-12-01T21:49:22.483Z,11.43
2022-12-01T21:51:52.842Z,13.45
2022-12-01T21:54:21.639Z,15.23
2022-12-01T21:56:57.103Z,15.07
2022-12-01T21:59:24.556Z,16.08
2022-12-01T22:01:54.839Z,12.10
2022-12-01T22:04:25.337Z,14.10
2022-12-01T22:06:54.623Z,12.48
2022-12-01T22:09:31.457Z,16.80
2022-12-01T22:12:07.242Z,13.73
2022-12-01T22:14:35.687Z,16.02
2022-12-01T22:17:05.320Z,12.18
2022-12-01T22:19:33.253Z,17.20
2022-12-01T22:22:01.714Z,12.32
2022-12-01T22:24:35.345Z,13.10
2022-12-01T22:27:26.363Z,11.52
2022-12-01T22:30:17.151Z,13.20
2022-12-01T22:32:58.658Z,10.88
2022-12-01T22:35:44.818Z,10.73
2022-12-01T22:40:48.329Z,13.57
2022-12-01T22:43:17.963Z,12.88
2022-12-01T22:46:00.126Z,11.45
2022-12-01T22:48:40.715Z,15.20
2022-12-01T22:51:13.551Z,11.07
2022-12-01T22:53:42.045Z,11.40
2022-12-01T22:56:32.476Z,10.57
2022-12-01T22:58:59.474Z,10.95
2022-12-01T23:01:27.696Z,10.88
2022-12-01T23:04:17.230Z,13.20
2022-12-01T23:06:57.282Z,10.70
2022-12-01T23:09:28.716Z,11.55
2022-12-01T23:12:00.639Z,10.05
2022-12-01T23:14:28.614Z,10.75
2022-12-01T23:17:07.277Z,11.45
2022-12-01T23:19:35.053Z,12.50
2022-12-01T23:22:02.014Z,13.35
2022-12-01T23:24:33.706Z,13.85
2022-12-01T23:27:00.917Z,18.83
2022-12-01T23:29:27.901Z,14.82
2022-12-01T23:31:55.347Z,13.50
2022-12-01T23:34:22.044Z,14.20
2022-12-01T23:36:50.155Z,13.32
2022-12-01T23:39:18.439Z,18.48
2022-12-01T23:41:51.194Z,14.20
2022-12-01T23:44:23.143Z,16.05
2022-12-01T23:46:53.601Z,17.27
2022-12-01T23:49:26.006Z,14.00
2022-12-01T23:51:55.610Z,12.13
2022-12-01T23:54:22.153Z,10.45
2022-12-01T23:56:52.462Z,17.15
2022-12-01T23:59:20.279Z,13.60
